Terminal Aerodrome Forecast
Issued by NWS

Current Version | Previous Version | Text Only | Print | Product List | Glossary On
Versions: 1 2 3 4 5 6 7 8 9 10 11 12 13 14 15 16 17
000
FTUS46 KSGX 020520
TAFSNA
TAF
KSNA 020520Z 0206/0306 VRB04KT P6SM OVC018
     FM021000 VRB04KT P6SM OVC020
     FM021730 VRB06KT P6SM SCT022 SCT250
     FM021900 22010KT P6SM FEW025 SCT250
     FM030200 VRB04KT P6SM FEW022 FEW025
     FM030400 VRB04KT P6SM BKN022=

USA.gov is the U.S. government's official web portal to all federal, state and local government web resources and services.